createdAt,value
2024-05-09T00:02:51.461Z,3.22
2024-05-09T00:05:53.869Z,3.17
2024-05-09T00:08:56.370Z,2.85
2024-05-09T00:11:58.803Z,3.08
2024-05-09T00:15:01.224Z,2.60
2024-05-09T00:18:04.387Z,2.47
2024-05-09T00:21:07.828Z,2.27
2024-05-09T00:24:10.280Z,2.50
2024-05-09T00:27:13.462Z,2.40
2024-05-09T00:30:24.191Z,2.55
2024-05-09T00:33:33.968Z,2.15
2024-05-09T00:36:36.359Z,2.37
2024-05-09T00:39:38.803Z,2.22
2024-05-09T00:42:41.157Z,1.80
2024-05-09T00:45:44.194Z,2.25
2024-05-09T00:48:47.199Z,2.20
2024-05-09T00:51:50.265Z,2.23
2024-05-09T00:54:52.654Z,1.90
2024-05-09T00:57:55.032Z,2.03
2024-05-09T01:00:59.459Z,1.95
2024-05-09T01:04:02.541Z,1.90
2024-05-09T01:07:05.031Z,1.60
2024-05-09T01:10:13.940Z,1.77
2024-05-09T01:13:19.868Z,1.70
2024-05-09T01:16:22.413Z,1.70
2024-05-09T01:19:28.746Z,1.50
2024-05-09T01:22:31.196Z,1.30
2024-05-09T01:25:33.685Z,1.35
2024-05-09T01:28:36.014Z,1.50
2024-05-09T01:31:38.398Z,1.38
2024-05-09T01:34:40.750Z,1.33
2024-05-09T01:37:43.124Z,1.30
2024-05-09T01:40:46.112Z,1.27
2024-05-09T01:43:48.516Z,1.13
2024-05-09T01:46:50.874Z,1.00
2024-05-09T01:49:53.939Z,0.98
2024-05-09T01:52:56.396Z,1.20
2024-05-09T01:55:58.876Z,1.30
2024-05-09T01:59:01.988Z,1.30
2024-05-09T02:02:04.593Z,1.35
2024-05-09T02:05:07.268Z,1.00
2024-05-09T02:08:13.037Z,1.17
2024-05-09T02:11:15.508Z,1.15
2024-05-09T02:14:18.375Z,1.25
2024-05-09T02:17:20.891Z,1.17
2024-05-09T02:20:30.660Z,1.10
2024-05-09T02:23:38.457Z,1.20
2024-05-09T02:26:40.893Z,0.95
2024-05-09T02:29:45.144Z,0.95
2024-05-09T02:32:47.917Z,1.08
2024-05-09T02:35:50.446Z,1.05
2024-05-09T02:38:52.796Z,0.93
2024-05-09T02:41:55.156Z,1.00
2024-05-09T02:44:57.508Z,1.13
2024-05-09T02:48:00.439Z,1.30
2024-05-09T02:51:03.407Z,1.20
2024-05-09T02:54:07.745Z,1.00
2024-05-09T02:57:10.121Z,1.10
2024-05-09T03:00:18.852Z,1.10
2024-05-09T03:03:25.639Z,1.30
2024-05-09T03:06:28.374Z,1.00
2024-05-09T03:09:30.722Z,1.07
2024-05-09T03:12:34.083Z,1.20
2024-05-09T03:15:37.499Z,1.35
2024-05-09T03:18:39.955Z,1.23
2024-05-09T03:21:42.357Z,1.20
2024-05-09T03:24:44.985Z,1.10
2024-05-09T03:27:47.295Z,1.10
2024-05-09T03:30:49.615Z,1.30
2024-05-09T03:33:52.205Z,1.10
2024-05-09T03:36:54.700Z,1.20
2024-05-09T03:39:57.034Z,1.07
2024-05-09T03:42:59.402Z,1.15
2024-05-09T03:46:01.910Z,1.15
2024-05-09T03:49:04.372Z,1.17
2024-05-09T03:52:06.809Z,1.08
2024-05-09T03:55:09.171Z,1.20
2024-05-09T03:58:15.434Z,0.90
2024-05-09T04:01:18.073Z,1.40
2024-05-09T04:04:20.449Z,1.00
2024-05-09T04:07:22.800Z,1.10
2024-05-09T04:10:32.418Z,1.17
2024-05-09T04:13:36.373Z,0.90
2024-05-09T04:16:38.718Z,1.20
2024-05-09T04:19:41.182Z,1.27
2024-05-09T04:22:43.515Z,1.30
2024-05-09T04:25:46.896Z,1.20
2024-05-09T04:28:49.461Z,1.40
2024-05-09T04:31:51.862Z,1.55
2024-05-09T04:34:54.276Z,1.48
2024-05-09T04:37:56.630Z,1.40
2024-05-09T04:40:59.041Z,1.03
2024-05-09T04:44:20.067Z,1.42
2024-05-09T04:47:22.586Z,1.45
2024-05-09T04:50:35.280Z,1.30
2024-05-09T04:53:40.572Z,0.82
2024-05-09T04:56:43.008Z,1.20
2024-05-09T04:59:45.438Z,1.15
2024-05-09T05:02:47.939Z,1.23
2024-05-09T05:05:50.506Z,1.35
2024-05-09T05:08:52.935Z,1.65
2024-05-09T05:11:55.494Z,1.13
2024-05-09T05:14:58.165Z,1.10
2024-05-09T05:18:00.709Z,1.30
2024-05-09T05:21:05.879Z,1.33
2024-05-09T05:24:08.965Z,1.10
2024-05-09T05:27:11.283Z,1.10
2024-05-09T05:30:21.112Z,0.98
2024-05-09T05:33:27.992Z,1.10
2024-05-09T05:36:30.495Z,1.00
2024-05-09T05:39:35.450Z,1.13
2024-05-09T05:42:37.843Z,1.10
2024-05-09T05:45:40.291Z,1.13
2024-05-09T05:48:47.256Z,1.35
2024-05-09T05:51:52.713Z,1.20
2024-05-09T05:54:58.726Z,1.08
2024-05-09T05:58:03.694Z,1.00
2024-05-09T06:01:07.863Z,1.27
2024-05-09T06:04:11.108Z,1.08
2024-05-09T06:07:15.716Z,0.95
2024-05-09T06:10:25.209Z,1.08
2024-05-09T06:13:32.155Z,1.20
2024-05-09T06:16:37.437Z,1.10
2024-05-09T06:19:42.215Z,1.13
2024-05-09T06:22:44.762Z,1.17
2024-05-09T06:25:47.229Z,1.25
2024-05-09T06:28:50.094Z,1.30
2024-05-09T06:31:53.507Z,1.40
2024-05-09T06:34:58.700Z,1.27
2024-05-09T06:38:01.544Z,1.13
2024-05-09T06:41:06.423Z,1.30
2024-05-09T06:44:10.143Z,1.50
2024-05-09T06:47:14.102Z,1.50
2024-05-09T06:50:23.722Z,2.65
2024-05-09T06:53:29.924Z,1.10
2024-05-09T06:56:32.539Z,1.00
2024-05-09T06:59:35.502Z,0.93
2024-05-09T07:02:40.546Z,1.23
2024-05-09T07:05:43.415Z,1.20
2024-05-09T07:08:46.985Z,0.77
2024-05-09T07:11:50.496Z,1.00
2024-05-09T07:14:53.192Z,1.20
2024-05-09T07:17:56.010Z,1.00
2024-05-09T07:21:00.003Z,0.90
2024-05-09T07:24:02.686Z,1.25
2024-05-09T07:27:05.561Z,1.13
2024-05-09T07:30:09.443Z,1.00
2024-05-09T07:33:17.768Z,0.90
2024-05-09T07:36:24.913Z,1.05
2024-05-09T07:39:30.210Z,1.00
2024-05-09T07:42:33.305Z,0.90
2024-05-09T07:53:20.404Z,0.90
2024-05-09T07:55:11.751Z,1.00
2024-05-09T07:58:14.294Z,1.30
2024-05-09T08:01:17.522Z,0.90
2024-05-09T08:04:21.388Z,1.10
2024-05-09T08:07:25.224Z,0.80
2024-05-09T08:10:31.066Z,0.90
2024-05-09T08:13:34.368Z,0.90
2024-05-09T08:16:37.955Z,0.90
2024-05-09T08:19:42.323Z,1.08
2024-05-09T08:22:45.394Z,1.00
2024-05-09T08:25:53.096Z,0.90
2024-05-09T08:28:56.322Z,0.93
2024-05-09T08:31:59.760Z,1.07
2024-05-09T08:35:05.607Z,0.98
2024-05-09T08:38:09.484Z,0.98
2024-05-09T08:41:16.299Z,1.33
2024-05-09T08:44:19.618Z,1.45
2024-05-09T08:47:24.963Z,0.93
2024-05-09T08:50:35.633Z,1.08
2024-05-09T08:53:41.026Z,1.30
2024-05-09T08:56:45.664Z,1.00
2024-05-09T08:59:51.013Z,0.93
2024-05-09T09:02:54.211Z,1.20
2024-05-09T09:05:57.140Z,0.90
2024-05-09T09:08:59.924Z,0.90
2024-05-09T09:12:02.854Z,1.00
2024-05-09T09:15:05.707Z,1.05
2024-05-09T09:18:11.727Z,1.00
2024-05-09T09:21:15.227Z,1.25
2024-05-09T09:24:17.788Z,0.93
2024-05-09T09:27:22.070Z,1.10
2024-05-09T09:30:34.756Z,1.13
2024-05-09T09:33:44.874Z,1.33
2024-05-09T09:36:48.258Z,1.02
2024-05-09T09:39:51.445Z,0.90
2024-05-09T09:42:58.098Z,1.00
2024-05-09T09:46:02.130Z,1.15
2024-05-09T09:49:08.612Z,1.03
2024-05-09T09:52:13.392Z,1.08
2024-05-09T09:55:18.580Z,1.00
2024-05-09T09:58:21.594Z,0.80
2024-05-09T10:01:27.710Z,0.80
2024-05-09T10:04:31.065Z,0.97
2024-05-09T10:07:34.924Z,1.08
2024-05-09T10:10:38.533Z,0.80
2024-05-09T10:13:41.803Z,0.85
2024-05-09T10:16:44.632Z,1.00
2024-05-09T10:19:47.557Z,1.07
2024-05-09T10:22:50.616Z,1.00
2024-05-09T10:26:00.150Z,0.80
2024-05-09T10:29:21.041Z,0.82
2024-05-09T10:32:24.359Z,0.73
2024-05-09T10:35:31.243Z,0.70
2024-05-09T10:38:33.935Z,1.00
2024-05-09T10:41:37.780Z,0.80
2024-05-09T10:44:42.702Z,0.80
2024-05-09T10:47:45.890Z,1.00
2024-05-09T10:50:48.400Z,0.90
2024-05-09T10:53:53.328Z,0.82
2024-05-09T10:56:56.187Z,0.80
2024-05-09T10:59:59.769Z,0.80
2024-05-09T11:03:02.393Z,0.70
2024-05-09T11:06:05.583Z,0.80
2024-05-09T11:09:08.845Z,0.90
2024-05-09T11:12:11.822Z,0.70
2024-05-09T11:15:16.512Z,0.85
2024-05-09T11:18:25.371Z,1.00
2024-05-09T11:21:29.509Z,0.90
2024-05-09T11:24:36.037Z,0.80
2024-05-09T11:27:41.229Z,0.73
2024-05-09T11:30:44.150Z,0.90
2024-05-09T11:33:49.462Z,0.70
2024-05-09T11:36:53.776Z,0.90
2024-05-09T11:39:56.768Z,0.90
2024-05-09T11:42:59.570Z,0.90
2024-05-09T11:46:03.600Z,0.77
2024-05-09T11:49:07.821Z,0.70
2024-05-09T11:52:12.768Z,1.00
2024-05-09T11:55:18.712Z,0.70
2024-05-09T11:58:23.036Z,0.90
2024-05-09T12:01:28.001Z,0.80
2024-05-09T12:04:30.833Z,0.65
2024-05-09T12:07:33.523Z,0.70
2024-05-09T12:10:38.526Z,0.60
2024-05-09T12:13:41.036Z,0.70
2024-05-09T12:16:43.574Z,0.90
2024-05-09T12:19:46.035Z,0.88
2024-05-09T12:22:48.507Z,0.90
2024-05-09T12:25:50.936Z,0.82
2024-05-09T12:28:53.415Z,0.70
2024-05-09T12:31:58.268Z,0.80
2024-05-09T12:35:00.790Z,0.80
2024-05-09T12:38:03.256Z,0.60
2024-05-09T12:41:05.844Z,0.82
2024-05-09T12:44:09.566Z,0.70
2024-05-09T12:47:12.052Z,0.90
2024-05-09T12:50:22.353Z,0.70
2024-05-09T12:53:31.921Z,0.90
2024-05-09T12:56:34.396Z,0.82
2024-05-09T12:59:36.750Z,0.80
2024-05-09T13:02:39.323Z,0.90
2024-05-09T13:05:44.930Z,0.70
2024-05-09T13:08:48.303Z,0.80
2024-05-09T13:11:50.737Z,0.50
2024-05-09T13:14:53.270Z,0.77
2024-05-09T13:17:58.449Z,0.65
2024-05-09T13:21:07.442Z,0.60
2024-05-09T13:24:14.838Z,0.70
2024-05-09T13:27:17.267Z,0.80
2024-05-09T13:30:28.742Z,0.82
2024-05-09T13:33:37.860Z,0.85
2024-05-09T13:36:40.385Z,0.85
2024-05-09T13:39:42.849Z,0.60
2024-05-09T13:42:47.582Z,0.70
2024-05-09T13:45:52.179Z,0.50
2024-05-09T13:48:54.799Z,0.60
2024-05-09T13:51:57.405Z,0.80
2024-05-09T13:54:59.975Z,0.70
2024-05-09T13:58:02.660Z,0.73
2024-05-09T14:01:05.393Z,0.70
2024-05-09T14:04:10.121Z,1.00
2024-05-09T14:07:12.958Z,0.77
2024-05-09T14:10:22.970Z,0.70
2024-05-09T14:13:30.899Z,0.90
2024-05-09T14:16:33.572Z,0.93
2024-05-09T14:19:36.107Z,0.90
2024-05-09T14:22:40.611Z,0.77
2024-05-09T14:25:44.161Z,0.70
2024-05-09T14:28:47.611Z,0.70
2024-05-09T14:31:50.701Z,0.80
2024-05-09T14:34:53.189Z,0.80
2024-05-09T14:37:55.679Z,0.70
2024-05-09T14:40:58.211Z,0.90
2024-05-09T14:44:00.682Z,0.60
2024-05-09T14:47:03.342Z,0.90
2024-05-09T14:50:07.054Z,0.80
2024-05-09T14:53:12.042Z,1.02
2024-05-09T14:56:17.034Z,0.60
2024-05-09T14:59:19.452Z,0.80
2024-05-09T15:02:21.916Z,1.20
2024-05-09T15:05:24.527Z,0.73
2024-05-09T15:08:26.987Z,0.98
2024-05-09T15:11:29.556Z,0.87
2024-05-09T15:14:32.113Z,0.70
2024-05-09T15:17:34.692Z,0.70
2024-05-09T15:20:37.915Z,0.70
2024-05-09T15:23:40.574Z,0.50
2024-05-09T15:26:43.001Z,0.83
2024-05-09T15:29:45.734Z,0.90
2024-05-09T15:32:48.225Z,0.82
2024-05-09T15:35:51.115Z,0.88
2024-05-09T15:38:54.979Z,0.80
2024-05-09T15:41:58.464Z,0.90
2024-05-09T15:45:01.022Z,0.80
2024-05-09T15:48:06.324Z,0.60
2024-05-09T15:51:10.952Z,0.85
2024-05-09T15:54:13.357Z,0.82
2024-05-09T15:57:15.758Z,0.70
2024-05-09T16:00:25.176Z,0.90
2024-05-09T16:03:36.569Z,0.73
2024-05-09T16:06:39.649Z,0.57
2024-05-09T16:09:42.118Z,0.85
2024-05-09T16:12:45.637Z,0.70
2024-05-09T16:15:48.309Z,0.98
2024-05-09T16:18:50.992Z,0.70
2024-05-09T16:21:53.469Z,0.90
2024-05-09T16:24:55.996Z,0.73
2024-05-09T16:28:01.908Z,0.70
2024-05-09T16:31:04.750Z,0.80
2024-05-09T16:34:07.911Z,0.88
2024-05-09T16:37:12.651Z,0.80
2024-05-09T16:40:22.198Z,0.50
2024-05-09T16:43:32.572Z,0.87
2024-05-09T16:46:35.126Z,0.90
2024-05-09T16:49:37.583Z,0.85
2024-05-09T16:52:40.117Z,0.80
2024-05-09T16:55:42.495Z,0.73
2024-05-09T16:58:44.923Z,0.70
2024-05-09T17:01:47.341Z,0.73
2024-05-09T17:04:49.934Z,0.82
2024-05-09T17:07:52.489Z,0.70
2024-05-09T17:10:55.527Z,0.90
2024-05-09T17:13:58.347Z,0.70
2024-05-09T17:17:00.866Z,0.82
2024-05-09T17:20:04.813Z,0.70
2024-05-09T17:23:17.512Z,0.73
2024-05-09T17:26:22.014Z,0.90
2024-05-09T17:29:24.502Z,0.80
2024-05-09T17:32:26.920Z,0.80
2024-05-09T17:35:29.433Z,0.80
2024-05-09T17:38:31.853Z,0.82
2024-05-09T17:41:34.227Z,0.90
2024-05-09T17:44:36.569Z,0.93
2024-05-09T17:47:39.040Z,0.80
2024-05-09T17:50:42.187Z,0.98
2024-05-09T17:53:44.766Z,0.82
2024-05-09T17:56:47.292Z,1.30
2024-05-09T17:59:52.051Z,1.20
2024-05-09T18:02:54.421Z,1.20
2024-05-09T18:05:56.984Z,1.00
2024-05-09T18:08:59.427Z,1.10
2024-05-09T18:12:02.001Z,1.10
2024-05-09T18:15:05.191Z,1.10
2024-05-09T18:18:08.919Z,1.02
2024-05-09T18:21:11.566Z,0.70
2024-05-09T18:24:13.948Z,1.13
2024-05-09T18:27:17.699Z,0.90
2024-05-09T18:30:27.434Z,1.03
2024-05-09T18:33:34.255Z,1.40
2024-05-09T18:36:36.879Z,1.30
2024-05-09T18:39:39.843Z,0.90
2024-05-09T18:42:42.372Z,1.08
2024-05-09T18:45:45.267Z,1.20
2024-05-09T18:48:48.018Z,1.35
2024-05-09T18:51:50.526Z,1.40
2024-05-09T18:54:52.903Z,1.52
2024-05-09T18:57:55.444Z,1.20
2024-05-09T19:01:00.790Z,1.70
2024-05-09T19:04:04.578Z,1.25
2024-05-09T19:07:07.426Z,1.10
2024-05-09T19:10:21.865Z,1.35
2024-05-09T19:13:28.426Z,1.67
2024-05-09T19:16:31.408Z,1.87
2024-05-09T19:19:34.330Z,1.80
2024-05-09T19:22:36.927Z,1.65
2024-05-09T19:25:39.937Z,2.05
2024-05-09T19:28:42.631Z,1.52
2024-05-09T19:31:45.282Z,1.43
2024-05-09T19:34:47.939Z,1.48
2024-05-09T19:37:51.964Z,1.58
2024-05-09T19:40:54.459Z,2.25
2024-05-09T19:43:57.106Z,1.67
2024-05-09T19:46:59.716Z,1.50
2024-05-09T19:50:02.565Z,1.23
2024-05-09T19:53:05.262Z,1.50
2024-05-09T19:56:07.811Z,1.10
2024-05-09T19:59:10.948Z,1.35
2024-05-09T20:02:14.431Z,1.40
2024-05-09T20:05:17.547Z,1.20
2024-05-09T20:08:20.140Z,1.50
2024-05-09T20:11:23.942Z,1.50
2024-05-09T20:14:26.489Z,1.40
2024-05-09T20:17:28.911Z,1.40
2024-05-09T20:20:37.760Z,1.30
2024-05-09T20:23:44.110Z,1.30
2024-05-09T20:26:48.411Z,1.30
2024-05-09T20:29:51.103Z,1.35
2024-05-09T20:32:53.769Z,1.27
2024-05-09T20:36:01.639Z,1.13
2024-05-09T20:39:04.844Z,1.10
2024-05-09T20:42:07.493Z,1.33
2024-05-09T20:45:10.032Z,1.30
2024-05-09T20:48:12.609Z,1.23
2024-05-09T20:51:15.254Z,1.30
2024-05-09T20:54:17.805Z,1.30
2024-05-09T20:57:20.197Z,0.88
2024-05-09T21:00:29.939Z,1.15
2024-05-09T21:03:43.600Z,1.27
2024-05-09T21:06:46.082Z,1.50
2024-05-09T21:09:48.533Z,1.38
2024-05-09T21:12:51.313Z,1.30
2024-05-09T21:15:53.855Z,1.45
2024-05-09T21:18:56.279Z,1.37
2024-05-09T21:22:00.711Z,1.67
2024-05-09T21:25:03.152Z,1.60
2024-05-09T21:28:05.822Z,1.33
2024-05-09T21:31:08.455Z,1.65
2024-05-09T21:34:10.904Z,1.63
2024-05-09T21:37:13.412Z,1.60
2024-05-09T21:40:26.627Z,1.48
2024-05-09T21:43:35.709Z,1.35
2024-05-09T21:46:38.202Z,1.80
2024-05-09T21:49:40.636Z,1.10
2024-05-09T21:52:42.962Z,1.20
2024-05-09T21:55:46.313Z,1.20
2024-05-09T21:58:48.693Z,1.38
2024-05-09T22:01:51.109Z,1.33
2024-05-09T22:04:53.815Z,1.53
2024-05-09T22:07:56.634Z,1.80
2024-05-09T22:10:59.087Z,1.40
2024-05-09T22:14:01.428Z,1.35
2024-05-09T22:17:03.942Z,1.25
2024-05-09T22:20:11.989Z,1.30
2024-05-09T22:23:20.750Z,1.08
2024-05-09T22:26:23.090Z,1.40
2024-05-09T22:29:25.530Z,1.45
2024-05-09T22:32:27.961Z,1.45
2024-05-09T22:35:30.347Z,1.20
2024-05-09T22:38:32.755Z,1.88
2024-05-09T22:41:35.080Z,1.30
2024-05-09T22:44:37.418Z,1.70
2024-05-09T22:47:39.850Z,0.90
2024-05-09T22:50:42.258Z,1.20
2024-05-09T22:53:44.584Z,0.98
2024-05-09T22:56:46.922Z,1.50
2024-05-09T22:59:49.240Z,1.45
2024-05-09T23:02:51.569Z,1.42
2024-05-09T23:05:53.935Z,1.40
2024-05-09T23:08:56.312Z,1.20
2024-05-09T23:11:58.673Z,1.30
2024-05-09T23:15:01.139Z,1.42
2024-05-09T23:18:04.360Z,1.23
2024-05-09T23:21:06.779Z,1.10
2024-05-09T23:24:09.183Z,1.20
2024-05-09T23:27:11.581Z,1.30
2024-05-09T23:30:25.391Z,1.15
2024-05-09T23:33:31.698Z,1.20
2024-05-09T23:36:34.073Z,1.00
2024-05-09T23:39:36.518Z,1.40
2024-05-09T23:42:40.931Z,1.05
2024-05-09T23:45:43.727Z,1.30
2024-05-09T23:48:46.243Z,1.17
2024-05-09T23:51:48.663Z,1.40
2024-05-09T23:54:51.080Z,1.60
2024-05-09T23:57:53.408Z,1.35
